West Falls, New York
Current Conditions -  °F | °C
As of 4:54 AM on Sunday 21 Dec 2014 (Local Time) from KBUF Reporting Station
Broken Clouds Broken Clouds  
Wind Chill: -2°   Ceiling: 28000
Heat Index: -2°   Visibility: 9mi
Dew Point: -6°   Wind: 3mph
Humidity: 78%   Direction: 230°SW
Pressure: 30.26"   Gusts: NA
Location:  42.7°N, 78.68°W
Report Text: KBUF 210954Z 23003KT 9SM SCT031 SCT100 BKN280 M02/M06 A3026 RMK AO2 SLP258 T10221056
Loading
Personal Weather Stations






























Interactive Weather Map New forecast layout! Learn more

10-Day Weather Forecast

Advertisements
Track Severe Weather on mobile